Mathilde Maersk — OUJS2 — position and weather

sailwx.info

Track history (hours):
 
Tides and Currents Weather Stations Pressure Air Temp Water Temp Dewpoint Dewpoint Depression Visibility Wind Speed Wind Dir Waves Ship Positions

Mathilde Maersk

Last reported at 2017-Mar-16 12:22 UTC. Time now 2017-Mar-29 03:24 UTC.
Position N 02°02' E 102°09'.
Warning: this ship's position is 12 days out of date.

Length 367 m; draft 12.2 m.

Type: Ship (hazmat cat B). MMSI: 220597990.

Date/timePositionNaut miles runAvg speedWind from/ knotsBaromVisibWave heightAir tempDewpointWater temp
2017-Mar-16 12:22N 02°02' E 102°09'1417.2
2017-Mar-16 11:33N 01°54' E 102°21'1918.4
2017-Mar-16 10:31N 01°46' E 102°38'5518.6
2017-Mar-16 07:33N 01°15' E 103°24'1514.7
2017-Mar-16 06:33N 01°12' E 103°38'8 8.1
2017-Mar-16 05:30N 01°16' E 103°46'0 0.3
2017-Mar-16 04:27N 01°16' E 103°46'0 0.0
2017-Mar-15 22:06N 01°16' E 103°46'0 0.0
2017-Mar-15 20:21N 01°16' E 103°46'0 0.0
2017-Mar-15 19:24N 01°16' E 103°46'0 0.0
2017-Mar-15 17:09N 01°16' E 103°46'0 0.0
2017-Mar-15 15:24N 01°16' E 103°46'0 0.0
2017-Mar-15 14:33N 01°16' E 103°46'0 0.0
2017-Mar-15 13:33N 01°16' E 103°46'0 0.0
2017-Mar-15 12:24N 01°16' E 103°46'0 0.0
2017-Mar-15 11:30N 01°16' E 103°46'0 0.0
2017-Mar-15 09:33N 01°16' E 103°46'0 0.0
2017-Mar-15 08:33N 01°16' E 103°46'0 0.0
2017-Mar-15 07:27N 01°16' E 103°46'0 0.0
2017-Mar-15 06:33N 01°16' E 103°46'0 0.5
2017-Mar-15 05:33N 01°16' E 103°45'1 1.1
2017-Mar-15 04:33N 01°16' E 103°46'10 9.8
2017-Mar-15 03:33N 01°14' E 103°56'9 9.0
2017-Mar-15 02:31N 01°16' E 104°05'4710.6
2017-Mar-14 22:07N 01°46' E 104°41'  
Track history (hours):
 
Tides and Currents Weather Stations Pressure Air Temp Water Temp Dewpoint Dewpoint Depression Visibility Wind Speed Wind Dir Waves Ship Positions

Mathilde Maersk

Last reported at 2017-Mar-16 12:22 UTC. Time now 2017-Mar-29 03:24 UTC.
Position N 02°02' E 102°09'.
Warning: this ship's position is 12 days out of date.

Length 367 m; draft 12.2 m.

Type: Ship (hazmat cat B). MMSI: 220597990.

Date/timePositionNaut miles runAvg speedWind from/ knotsBaromVisibWave heightAir tempDewpointWater temp
2017-Mar-16 12:22N 02°02' E 102°09'1417.2
2017-Mar-16 11:33N 01°54' E 102°21'1918.4
2017-Mar-16 10:31N 01°46' E 102°38'5518.6
2017-Mar-16 07:33N 01°15' E 103°24'1514.7
2017-Mar-16 06:33N 01°12' E 103°38'8 8.1
2017-Mar-16 05:30N 01°16' E 103°46'0 0.3
2017-Mar-16 04:27N 01°16' E 103°46'0 0.0
2017-Mar-15 22:06N 01°16' E 103°46'0 0.0
2017-Mar-15 20:21N 01°16' E 103°46'0 0.0
2017-Mar-15 19:24N 01°16' E 103°46'0 0.0
2017-Mar-15 17:09N 01°16' E 103°46'0 0.0
2017-Mar-15 15:24N 01°16' E 103°46'0 0.0
2017-Mar-15 14:33N 01°16' E 103°46'0 0.0
2017-Mar-15 13:33N 01°16' E 103°46'0 0.0
2017-Mar-15 12:24N 01°16' E 103°46'0 0.0
2017-Mar-15 11:30N 01°16' E 103°46'0 0.0
2017-Mar-15 09:33N 01°16' E 103°46'0 0.0
2017-Mar-15 08:33N 01°16' E 103°46'0 0.0
2017-Mar-15 07:27N 01°16' E 103°46'0 0.0
2017-Mar-15 06:33N 01°16' E 103°46'0 0.5
2017-Mar-15 05:33N 01°16' E 103°45'1 1.1
2017-Mar-15 04:33N 01°16' E 103°46'10 9.8
2017-Mar-15 03:33N 01°14' E 103°56'9 9.0
2017-Mar-15 02:31N 01°16' E 104°05'4710.6
2017-Mar-14 22:07N 01°46' E 104°41'  

Dump ship's entire track history